createdAt,value
2022-11-10T00:01:56.934Z,11.62
2022-11-10T00:04:42.864Z,11.79
2022-11-10T00:07:29.128Z,11.81
2022-11-10T00:10:15.715Z,11.68
2022-11-10T00:13:02.879Z,11.59
2022-11-10T00:15:49.204Z,11.62
2022-11-10T00:18:35.615Z,11.83
2022-11-10T00:21:21.669Z,11.62
2022-11-10T00:24:07.753Z,11.68
2022-11-10T00:26:54.796Z,11.69
2022-11-10T00:29:41.635Z,11.81
2022-11-10T00:32:27.735Z,11.64
2022-11-10T00:35:13.898Z,11.68
2022-11-10T00:37:59.999Z,11.47
2022-11-10T00:40:46.716Z,11.39
2022-11-10T00:43:33.105Z,11.65
2022-11-10T00:46:19.884Z,11.65
2022-11-10T00:49:06.081Z,11.61
2022-11-10T00:51:52.296Z,11.69
2022-11-10T00:54:38.281Z,11.81
2022-11-10T00:57:24.277Z,11.75
2022-11-10T01:00:10.545Z,11.64
2022-11-10T01:02:57.111Z,11.76
2022-11-10T01:05:44.185Z,11.75
2022-11-10T01:08:30.094Z,11.71
2022-11-10T01:11:23.614Z,11.79
2022-11-10T01:14:09.915Z,11.86
2022-11-10T01:16:56.018Z,11.81
2022-11-10T01:19:42.449Z,11.78
2022-11-10T01:22:28.526Z,11.21
2022-11-10T01:25:14.857Z,11.09
2022-11-10T01:28:00.981Z,11.33
2022-11-10T01:30:47.077Z,11.16
2022-11-10T01:33:33.629Z,11.52
2022-11-10T01:36:19.812Z,11.61
2022-11-10T01:39:05.893Z,11.57
2022-11-10T01:41:51.975Z,11.46
2022-11-10T01:44:39.548Z,11.67
2022-11-10T01:47:25.934Z,11.89
2022-11-10T01:50:12.178Z,11.92
2022-11-10T01:53:01.378Z,11.70
2022-11-10T01:55:47.945Z,11.72
2022-11-10T01:58:37.712Z,11.61
2022-11-10T02:01:24.380Z,11.49
2022-11-10T02:04:13.528Z,11.53
2022-11-10T02:06:59.629Z,11.53
2022-11-10T02:09:46.344Z,11.53
2022-11-10T02:12:32.562Z,11.74
2022-11-10T02:15:18.877Z,11.60
2022-11-10T02:18:05.397Z,11.85
2022-11-10T02:20:51.319Z,11.80
2022-11-10T02:23:37.450Z,11.58
2022-11-10T02:26:25.932Z,11.68
2022-11-10T02:29:12.662Z,11.79
2022-11-10T02:31:58.835Z,11.77
2022-11-10T02:34:44.963Z,11.61
2022-11-10T02:37:31.361Z,11.36
2022-11-10T02:40:17.649Z,11.46
2022-11-10T02:43:06.525Z,11.30
2022-11-10T02:45:52.476Z,11.98
2022-11-10T02:48:38.807Z,11.73
2022-11-10T02:51:24.979Z,11.79
2022-11-10T02:54:10.893Z,11.91
2022-11-10T02:56:56.780Z,11.86
2022-11-10T02:59:47.251Z,12.02
2022-11-10T03:02:33.849Z,12.11
2022-11-10T03:05:20.003Z,12.09
2022-11-10T03:08:06.060Z,12.23
2022-11-10T03:10:56.475Z,12.35
2022-11-10T03:14:00.249Z,12.34
2022-11-10T03:16:47.356Z,12.21
2022-11-10T03:19:33.847Z,12.26
2022-11-10T03:22:19.680Z,12.07
2022-11-10T03:25:06.374Z,12.04
2022-11-10T03:27:52.239Z,12.21
2022-11-10T03:30:38.940Z,12.40
2022-11-10T03:33:25.340Z,12.37
2022-11-10T03:36:11.843Z,11.73
2022-11-10T03:38:57.899Z,11.56
2022-11-10T03:41:43.863Z,11.74
2022-11-10T03:44:29.777Z,11.59
2022-11-10T03:47:15.671Z,11.68
2022-11-10T03:50:01.660Z,11.62
2022-11-10T03:52:47.838Z,11.76
2022-11-10T03:55:33.882Z,11.76
2022-11-10T03:58:19.831Z,11.76
2022-11-10T04:01:05.784Z,11.77
2022-11-10T04:03:52.244Z,11.68
2022-11-10T04:06:37.986Z,11.51
2022-11-10T04:09:24.110Z,11.36
2022-11-10T04:12:10.436Z,11.48
2022-11-10T04:14:56.534Z,11.33
2022-11-10T04:17:49.431Z,11.42
2022-11-10T04:20:35.778Z,11.47
2022-11-10T04:23:23.730Z,11.49
2022-11-10T04:26:12.399Z,11.27
2022-11-10T04:29:03.111Z,11.20
2022-11-10T04:31:49.064Z,11.39
2022-11-10T04:34:35.074Z,11.43
2022-11-10T04:37:20.820Z,11.41
2022-11-10T04:40:07.233Z,11.55
2022-11-10T04:42:57.475Z,11.53
2022-11-10T04:45:43.955Z,11.57
2022-11-10T04:48:30.619Z,11.66
2022-11-10T04:51:18.381Z,11.44
2022-11-10T04:54:06.557Z,11.54
2022-11-10T04:56:52.246Z,11.81
2022-11-10T04:59:38.387Z,11.99
2022-11-10T05:02:24.677Z,11.93
2022-11-10T05:05:10.530Z,12.08
2022-11-10T05:07:56.661Z,11.99
2022-11-10T05:10:43.579Z,12.04
2022-11-10T05:13:29.824Z,11.90
2022-11-10T05:16:15.780Z,12.02
2022-11-10T05:19:01.738Z,11.99
2022-11-10T05:21:48.095Z,11.90
2022-11-10T05:24:34.582Z,12.08
2022-11-10T05:27:20.698Z,11.91
2022-11-10T05:30:07.857Z,11.68
2022-11-10T05:32:53.851Z,10.84
2022-11-10T05:35:40.041Z,10.41
2022-11-10T05:38:26.321Z,10.66
2022-11-10T05:41:12.630Z,10.84
2022-11-10T05:43:58.501Z,10.34
2022-11-10T05:46:44.502Z,10.33
2022-11-10T05:49:30.519Z,10.37
2022-11-10T05:52:16.468Z,10.64
2022-11-10T05:55:02.841Z,10.81
2022-11-10T05:57:50.856Z,10.45
2022-11-10T06:00:36.695Z,10.31
2022-11-10T06:03:23.157Z,10.20
2022-11-10T06:06:09.436Z,10.10
2022-11-10T06:08:57.035Z,10.27
2022-11-10T06:11:43.168Z,10.27
2022-11-10T06:14:29.356Z,10.41
2022-11-10T06:17:15.367Z,10.36
2022-11-10T06:20:01.382Z,10.32
2022-11-10T06:23:16.856Z,10.28
2022-11-10T06:26:03.019Z,10.32
2022-11-10T06:28:49.106Z,10.30
2022-11-10T06:31:35.110Z,10.31
2022-11-10T06:34:21.088Z,10.40
2022-11-10T06:37:07.524Z,10.52
2022-11-10T06:39:54.107Z,10.47
2022-11-10T06:42:40.361Z,10.37
2022-11-10T06:45:27.152Z,10.93
2022-11-10T06:48:13.883Z,11.07
2022-11-10T06:51:01.048Z,10.68
2022-11-10T06:53:47.065Z,10.61
2022-11-10T06:56:33.119Z,10.44
2022-11-10T06:59:19.276Z,10.49
2022-11-10T07:02:05.612Z,10.64
2022-11-10T07:04:51.504Z,10.75
2022-11-10T07:07:37.863Z,10.91
2022-11-10T07:10:24.147Z,10.59
2022-11-10T07:13:10.941Z,10.90
2022-11-10T07:15:57.009Z,11.05
2022-11-10T07:18:43.039Z,11.01
2022-11-10T07:21:29.199Z,11.08
2022-11-10T07:24:15.426Z,11.04
2022-11-10T07:27:01.581Z,10.93
2022-11-10T07:29:47.658Z,10.81
2022-11-10T07:32:33.896Z,10.93
2022-11-10T07:35:20.100Z,10.77
2022-11-10T07:38:08.288Z,10.90
2022-11-10T07:40:55.120Z,11.30
2022-11-10T07:43:41.306Z,11.05
2022-11-10T07:46:27.726Z,11.04
2022-11-10T07:49:13.744Z,12.42
2022-11-10T07:51:59.773Z,11.81
2022-11-10T07:54:45.751Z,11.41
2022-11-10T07:57:33.266Z,11.17
2022-11-10T08:00:19.845Z,11.15
2022-11-10T08:03:08.121Z,11.20
2022-11-10T08:05:57.356Z,11.16
2022-11-10T08:08:43.591Z,11.08
2022-11-10T08:11:32.608Z,11.19
2022-11-10T08:14:18.670Z,11.88
2022-11-10T08:17:04.554Z,11.17
2022-11-10T08:19:50.676Z,11.20
2022-11-10T08:22:36.665Z,11.23
2022-11-10T08:25:22.782Z,11.69
2022-11-10T08:28:10.958Z,11.49
2022-11-10T08:31:01.514Z,11.34
2022-11-10T08:33:50.570Z,11.22
2022-11-10T08:36:36.938Z,12.10
2022-11-10T08:39:38.121Z,12.96
2022-11-10T08:42:25.098Z,11.70
2022-11-10T08:45:11.308Z,11.42
2022-11-10T08:47:58.474Z,11.49
2022-11-10T08:50:44.814Z,11.47
2022-11-10T08:53:30.904Z,11.20
2022-11-10T08:56:16.925Z,11.29
2022-11-10T08:59:02.700Z,11.37
2022-11-10T09:01:49.065Z,11.42
2022-11-10T09:04:35.509Z,11.58
2022-11-10T09:07:21.757Z,11.62
2022-11-10T09:10:08.419Z,11.74
2022-11-10T09:12:58.288Z,11.77
2022-11-10T09:15:44.263Z,11.91
2022-11-10T09:18:31.154Z,11.82
2022-11-10T09:21:17.259Z,11.87
2022-11-10T09:24:03.589Z,11.73
2022-11-10T09:26:49.744Z,11.76
2022-11-10T09:29:35.772Z,11.75
2022-11-10T09:32:21.772Z,11.91
2022-11-10T09:35:07.900Z,11.74
2022-11-10T09:37:54.269Z,11.93
2022-11-10T09:40:58.965Z,11.92
2022-11-10T09:44:13.067Z,11.87
2022-11-10T09:47:00.753Z,12.13
2022-11-10T09:49:51.468Z,12.06
2022-11-10T09:52:37.915Z,12.12
2022-11-10T09:55:32.913Z,12.14
2022-11-10T09:58:21.940Z,12.07
2022-11-10T10:01:08.293Z,12.06
2022-11-10T10:04:10.614Z,11.95
2022-11-10T10:07:25.378Z,12.04
2022-11-10T10:10:23.192Z,12.06
2022-11-10T10:13:30.926Z,11.93
2022-11-10T10:16:24.733Z,11.95
2022-11-10T10:19:34.401Z,12.38
2022-11-10T10:22:29.592Z,12.54
2022-11-10T10:25:21.949Z,12.56
2022-11-10T10:28:23.334Z,12.28
2022-11-10T10:31:19.029Z,12.08
2022-11-10T10:34:11.557Z,12.24
2022-11-10T10:36:57.771Z,12.57
2022-11-10T10:39:47.191Z,12.37
2022-11-10T10:42:35.496Z,12.65
2022-11-10T10:45:29.099Z,12.87
2022-11-10T10:48:27.401Z,12.79
2022-11-10T10:51:30.827Z,13.05
2022-11-10T10:54:26.869Z,13.12
2022-11-10T10:57:26.948Z,12.81
2022-11-10T11:00:22.056Z,12.31
2022-11-10T11:03:14.153Z,12.65
2022-11-10T11:06:03.987Z,12.60
2022-11-10T11:08:58.301Z,12.91
2022-11-10T11:11:46.544Z,13.11
2022-11-10T11:14:32.934Z,13.12
2022-11-10T11:17:22.585Z,12.99
2022-11-10T11:20:15.287Z,13.16
2022-11-10T11:23:15.741Z,13.27
2022-11-10T11:26:14.711Z,13.20
2022-11-10T11:29:42.352Z,12.98
2022-11-10T11:32:56.826Z,12.94
2022-11-10T11:36:03.404Z,13.17
2022-11-10T11:39:16.097Z,12.82
2022-11-10T11:42:15.293Z,13.11
2022-11-10T11:45:13.670Z,13.32
2022-11-10T11:48:05.851Z,13.30
2022-11-10T11:51:04.235Z,13.42
2022-11-10T11:54:11.404Z,13.25
2022-11-10T11:57:13.244Z,13.31
2022-11-10T12:00:17.659Z,13.18
2022-11-10T12:03:25.528Z,13.12
2022-11-10T12:06:20.705Z,13.15
2022-11-10T12:09:25.049Z,13.30
2022-11-10T12:12:35.826Z,13.11
2022-11-10T12:16:00.163Z,13.12
2022-11-10T12:18:51.542Z,12.90
2022-11-10T12:21:51.139Z,12.73
2022-11-10T12:25:02.914Z,12.76
2022-11-10T12:28:20.443Z,12.64
2022-11-10T12:31:12.493Z,12.57
2022-11-10T12:34:04.179Z,12.52
2022-11-10T12:36:50.718Z,12.41
2022-11-10T12:39:44.125Z,12.56
2022-11-10T12:42:31.288Z,12.27
2022-11-10T12:45:21.333Z,12.70
2022-11-10T12:48:10.708Z,12.51
2022-11-10T12:51:02.129Z,12.39
2022-11-10T12:53:48.465Z,12.73
2022-11-10T12:56:39.177Z,12.68
2022-11-10T12:59:31.142Z,12.41
2022-11-10T13:02:18.884Z,12.52
2022-11-10T13:05:13.595Z,12.59
2022-11-10T13:08:14.423Z,12.55
2022-11-10T13:11:04.114Z,12.21
2022-11-10T13:13:59.722Z,11.97
2022-11-10T13:16:51.794Z,12.06
2022-11-10T13:19:37.988Z,12.09
2022-11-10T13:22:29.997Z,11.92
2022-11-10T13:25:37.868Z,12.01
2022-11-10T13:28:56.587Z,12.16
2022-11-10T13:31:50.611Z,12.18
2022-11-10T13:34:40.565Z,12.12
2022-11-10T13:37:29.414Z,11.90
2022-11-10T13:40:24.873Z,12.14
2022-11-10T13:43:23.641Z,12.17
2022-11-10T13:46:09.950Z,12.26
2022-11-10T13:49:15.645Z,12.51
2022-11-10T13:52:14.003Z,12.44
2022-11-10T13:55:00.233Z,12.53
2022-11-10T13:58:18.165Z,12.53
2022-11-10T14:01:17.120Z,12.39
2022-11-10T14:04:03.823Z,12.19
2022-11-10T14:06:54.558Z,12.39
2022-11-10T14:09:50.676Z,12.39
2022-11-10T14:12:49.037Z,12.25
2022-11-10T14:15:40.162Z,12.22
2022-11-10T14:18:39.531Z,12.25
2022-11-10T14:21:44.378Z,12.22
2022-11-10T14:24:54.611Z,12.26
2022-11-10T14:27:41.266Z,12.16
2022-11-10T14:30:28.992Z,12.39
2022-11-10T14:33:15.463Z,12.63
2022-11-10T14:36:04.465Z,12.69
2022-11-10T14:38:52.224Z,12.54
2022-11-10T14:41:46.250Z,12.10
2022-11-10T14:44:34.045Z,11.97
2022-11-10T14:47:28.609Z,12.00
2022-11-10T14:50:15.143Z,11.98
2022-11-10T14:53:12.549Z,11.97
2022-11-10T14:56:00.048Z,12.07
2022-11-10T14:58:47.146Z,12.05
2022-11-10T15:01:33.112Z,11.90
2022-11-10T15:04:19.768Z,12.05
2022-11-10T15:07:06.059Z,11.96
2022-11-10T15:10:15.796Z,11.87
2022-11-10T15:13:14.030Z,12.07
2022-11-10T15:16:31.836Z,12.04
2022-11-10T15:19:46.499Z,11.96
2022-11-10T15:22:36.364Z,11.72
2022-11-10T15:25:24.089Z,11.76
2022-11-10T15:28:13.457Z,11.75
2022-11-10T15:31:04.730Z,11.73
2022-11-10T15:33:54.126Z,11.78
2022-11-10T15:36:40.061Z,11.71
2022-11-10T15:39:26.756Z,11.76
2022-11-10T15:42:18.733Z,11.91
2022-11-10T15:45:05.552Z,11.84
2022-11-10T15:47:51.700Z,11.82
2022-11-10T15:50:38.309Z,11.78
2022-11-10T15:53:33.230Z,11.88
2022-11-10T15:56:21.365Z,11.89
2022-11-10T15:59:10.222Z,11.70
2022-11-10T16:01:57.561Z,11.60
2022-11-10T16:04:43.922Z,11.63
2022-11-10T16:07:30.018Z,11.60
2022-11-10T16:10:16.193Z,11.64
2022-11-10T16:13:02.242Z,11.70
2022-11-10T16:15:48.606Z,11.68
2022-11-10T16:18:38.861Z,11.63
2022-11-10T16:21:27.402Z,11.58
2022-11-10T16:24:13.329Z,11.55
2022-11-10T16:26:59.284Z,11.48
2022-11-10T16:29:45.973Z,11.47
2022-11-10T16:32:32.066Z,11.47
2022-11-10T16:35:17.983Z,11.43
2022-11-10T16:38:10.788Z,11.44
2022-11-10T16:41:00.979Z,11.42
2022-11-10T16:43:47.363Z,11.20
2022-11-10T16:46:36.306Z,11.29
2022-11-10T16:49:31.279Z,11.27
2022-11-10T16:52:19.039Z,11.26
2022-11-10T16:55:05.705Z,11.24
2022-11-10T16:57:51.601Z,10.93
2022-11-10T17:00:38.330Z,10.95
2022-11-10T17:03:36.421Z,10.93
2022-11-10T17:06:25.090Z,10.78
2022-11-10T17:09:18.165Z,10.72
2022-11-10T17:12:04.848Z,10.80
2022-11-10T17:14:50.976Z,10.94
2022-11-10T17:17:37.371Z,10.83
2022-11-10T17:20:28.679Z,10.80
2022-11-10T17:23:16.511Z,10.61
2022-11-10T17:26:03.100Z,10.76
2022-11-10T17:28:49.711Z,10.67
2022-11-10T17:31:35.858Z,10.57
2022-11-10T17:34:22.032Z,10.68
2022-11-10T17:37:12.404Z,10.62
2022-11-10T17:39:59.055Z,10.68
2022-11-10T17:42:45.416Z,10.60
2022-11-10T17:45:31.645Z,10.74
2022-11-10T17:48:20.861Z,10.73
2022-11-10T17:51:11.921Z,10.64
2022-11-10T17:53:57.832Z,10.55
2022-11-10T17:56:43.995Z,10.55
2022-11-10T17:59:30.533Z,10.49
2022-11-10T18:02:20.050Z,10.55
2022-11-10T18:05:06.957Z,10.58
2022-11-10T18:07:53.190Z,10.46
2022-11-10T18:10:50.179Z,10.51
2022-11-10T18:13:40.890Z,10.44
2022-11-10T18:16:27.209Z,10.54
2022-11-10T18:19:16.096Z,10.48
2022-11-10T18:22:02.368Z,10.35
2022-11-10T18:24:48.954Z,10.47
2022-11-10T18:27:35.824Z,10.30
2022-11-10T18:30:22.028Z,10.30
2022-11-10T18:33:09.620Z,10.35
2022-11-10T18:36:03.793Z,10.17
2022-11-10T18:38:50.237Z,10.21
2022-11-10T18:41:36.235Z,10.04
2022-11-10T18:44:22.462Z,10.15
2022-11-10T18:47:11.737Z,10.28
2022-11-10T18:49:58.455Z,10.21
2022-11-10T18:52:45.229Z,10.10
2022-11-10T18:55:31.534Z,10.12
2022-11-10T18:58:17.955Z,10.25
2022-11-10T19:01:11.568Z,10.38
2022-11-10T19:03:58.042Z,10.02
2022-11-10T19:06:44.317Z,9.91
2022-11-10T19:09:30.961Z,9.91
2022-11-10T19:12:16.963Z,10.02
2022-11-10T19:15:03.543Z,10.19
2022-11-10T19:17:50.134Z,10.20
2022-11-10T19:20:36.786Z,9.81
2022-11-10T19:23:23.318Z,9.70
2022-11-10T19:26:20.856Z,9.66
2022-11-10T19:29:10.391Z,9.52
2022-11-10T19:31:57.656Z,10.08
2022-11-10T19:34:44.670Z,9.67
2022-11-10T19:37:34.618Z,9.69
2022-11-10T19:40:21.735Z,9.60
2022-11-10T19:43:08.137Z,9.43
2022-11-10T19:45:54.355Z,9.50
2022-11-10T19:48:40.795Z,9.62
2022-11-10T19:51:29.945Z,9.60
2022-11-10T19:54:16.087Z,9.59
2022-11-10T19:57:02.325Z,9.65
2022-11-10T19:59:48.877Z,9.75
2022-11-10T20:02:35.317Z,9.76
2022-11-10T20:05:21.671Z,9.64
2022-11-10T20:08:10.519Z,9.59
2022-11-10T20:11:02.834Z,9.40
2022-11-10T20:13:54.495Z,9.42
2022-11-10T20:16:41.122Z,9.33
2022-11-10T20:19:27.288Z,9.21
2022-11-10T20:22:13.568Z,9.35
2022-11-10T20:24:59.620Z,9.23
2022-11-10T20:27:46.013Z,9.30
2022-11-10T20:30:34.952Z,9.32
2022-11-10T20:33:21.560Z,9.17
2022-11-10T20:36:19.911Z,9.34
2022-11-10T20:39:06.954Z,9.33
2022-11-10T20:41:52.831Z,9.32
2022-11-10T20:44:40.647Z,9.20
2022-11-10T20:47:30.058Z,9.27
2022-11-10T20:50:20.462Z,9.20
2022-11-10T20:53:10.219Z,8.99
2022-11-10T20:55:58.612Z,8.98
2022-11-10T20:58:45.010Z,8.95
2022-11-10T21:01:31.477Z,9.00
2022-11-10T21:04:17.462Z,8.95
2022-11-10T21:07:03.934Z,8.78
2022-11-10T21:09:50.272Z,8.72
2022-11-10T21:12:36.469Z,8.71
2022-11-10T21:15:22.698Z,8.71
2022-11-10T21:18:09.388Z,8.60
2022-11-10T21:20:57.632Z,8.70
2022-11-10T21:23:43.700Z,8.60
2022-11-10T21:26:34.227Z,8.61
2022-11-10T21:29:20.585Z,8.49
2022-11-10T21:32:06.479Z,8.43
2022-11-10T21:34:52.593Z,8.63
2022-11-10T21:37:38.551Z,8.69
2022-11-10T21:40:24.624Z,8.74
2022-11-10T21:43:10.714Z,8.32
2022-11-10T21:46:00.287Z,8.29
2022-11-10T21:48:46.685Z,8.27
2022-11-10T21:51:32.863Z,8.58
2022-11-10T21:54:19.118Z,8.36
2022-11-10T21:57:05.002Z,8.35
2022-11-10T21:59:51.357Z,8.32
2022-11-10T22:02:37.034Z,8.24
2022-11-10T22:05:22.950Z,8.30
2022-11-10T22:08:09.065Z,8.32
2022-11-10T22:10:55.216Z,8.35
2022-11-10T22:13:41.479Z,8.31
2022-11-10T22:16:44.386Z,8.27
2022-11-10T22:19:31.272Z,8.13
2022-11-10T22:22:17.197Z,8.06
2022-11-10T22:25:03.243Z,8.13
2022-11-10T22:27:49.402Z,8.04
2022-11-10T22:30:36.619Z,8.01
2022-11-10T22:33:22.911Z,7.96
2022-11-10T22:36:12.724Z,8.14
2022-11-10T22:39:03.171Z,8.00
2022-11-10T22:41:49.953Z,7.90
2022-11-10T22:44:36.271Z,8.02
2022-11-10T22:47:22.309Z,7.97
2022-11-10T22:50:08.729Z,7.89
2022-11-10T22:52:57.254Z,7.98
2022-11-10T22:55:43.180Z,7.91
2022-11-10T22:58:29.322Z,7.88
2022-11-10T23:01:15.373Z,7.70
2022-11-10T23:04:01.747Z,7.68
2022-11-10T23:06:47.821Z,7.76
2022-11-10T23:09:35.026Z,7.73
2022-11-10T23:12:20.974Z,7.57
2022-11-10T23:15:07.529Z,7.64
2022-11-10T23:17:54.367Z,7.64
2022-11-10T23:20:40.280Z,7.78
2022-11-10T23:23:27.403Z,7.85
2022-11-10T23:26:18.970Z,7.67
2022-11-10T23:29:04.927Z,7.63
2022-11-10T23:31:50.739Z,7.58
2022-11-10T23:34:36.642Z,7.69
2022-11-10T23:37:23.320Z,7.90
2022-11-10T23:40:09.793Z,7.79
2022-11-10T23:42:57.782Z,7.71
2022-11-10T23:46:05.751Z,7.53
2022-11-10T23:48:49.568Z,7.41
2022-11-10T23:51:35.771Z,7.51
2022-11-10T23:54:21.928Z,7.77
2022-11-10T23:57:07.890Z,7.52
2022-11-10T23:59:53.993Z,7.55
